sensor_id;sensor_type;location;lat;lon;timestamp;temperature;humidity
27306;DHT22;14792;50.886;6.468;2023-02-25T00:01:21;3.70;99.90
27306;DHT22;14792;50.886;6.468;2023-02-25T00:04:25;3.60;99.90
27306;DHT22;14792;50.886;6.468;2023-02-25T00:07:24;3.60;99.90
27306;DHT22;14792;50.886;6.468;2023-02-25T00:10:26;3.70;99.90
27306;DHT22;14792;50.886;6.468;2023-02-25T00:13:27;3.70;99.90
27306;DHT22;14792;50.886;6.468;2023-02-25T00:16:29;3.70;99.90
27306;DHT22;14792;50.886;6.468;2023-02-25T00:19:30;3.80;99.90
27306;DHT22;14792;50.886;6.468;2023-02-25T00:22:32;3.70;99.90
27306;DHT22;14792;50.886;6.468;2023-02-25T00:25:33;3.70;99.90
27306;DHT22;14792;50.886;6.468;2023-02-25T00:28:35;3.70;99.90
27306;DHT22;14792;50.886;6.468;2023-02-25T00:31:37;3.70;99.90
27306;DHT22;14792;50.886;6.468;2023-02-25T00:34:38;3.70;99.90
27306;DHT22;14792;50.886;6.468;2023-02-25T00:37:40;3.70;99.90
27306;DHT22;14792;50.886;6.468;2023-02-25T00:40:42;3.70;99.90
27306;DHT22;14792;50.886;6.468;2023-02-25T00:43:46;3.70;99.90
27306;DHT22;14792;50.886;6.468;2023-02-25T00:46:45;3.70;99.90
27306;DHT22;14792;50.886;6.468;2023-02-25T00:49:46;3.60;99.90
27306;DHT22;14792;50.886;6.468;2023-02-25T00:52:48;3.60;99.90
27306;DHT22;14792;50.886;6.468;2023-02-25T00:55:56;3.50;99.90
27306;DHT22;14792;50.886;6.468;2023-02-25T00:58:51;3.40;99.90
27306;DHT22;14792;50.886;6.468;2023-02-25T01:01:52;3.40;99.90
27306;DHT22;14792;50.886;6.468;2023-02-25T01:04:54;3.30;99.90
27306;DHT22;14792;50.886;6.468;2023-02-25T01:07:56;3.30;99.90
27306;DHT22;14792;50.886;6.468;2023-02-25T01:10:57;3.30;99.90
27306;DHT22;14792;50.886;6.468;2023-02-25T01:14:10;3.20;99.90
27306;DHT22;14792;50.886;6.468;2023-02-25T01:17:00;3.10;99.90
27306;DHT22;14792;50.886;6.468;2023-02-25T01:20:02;3.10;99.90
27306;DHT22;14792;50.886;6.468;2023-02-25T01:23:04;3.00;99.90
27306;DHT22;14792;50.886;6.468;2023-02-25T01:26:05;3.00;99.90
27306;DHT22;14792;50.886;6.468;2023-02-25T01:29:07;2.90;99.90
27306;DHT22;14792;50.886;6.468;2023-02-25T01:32:09;2.90;99.90
27306;DHT22;14792;50.886;6.468;2023-02-25T01:35:10;2.80;99.90
27306;DHT22;14792;50.886;6.468;2023-02-25T01:38:11;2.80;99.90
27306;DHT22;14792;50.886;6.468;2023-02-25T01:41:13;2.80;99.90
27306;DHT22;14792;50.886;6.468;2023-02-25T01:44:27;2.70;99.90
27306;DHT22;14792;50.886;6.468;2023-02-25T01:47:25;2.70;99.90
27306;DHT22;14792;50.886;6.468;2023-02-25T01:50:30;2.70;99.90
27306;DHT22;14792;50.886;6.468;2023-02-25T01:53:29;2.70;99.90
27306;DHT22;14792;50.886;6.468;2023-02-25T01:56:30;2.70;99.90
27306;DHT22;14792;50.886;6.468;2023-02-25T01:59:32;2.70;99.90
27306;DHT22;14792;50.886;6.468;2023-02-25T02:02:33;2.70;99.90
27306;DHT22;14792;50.886;6.468;2023-02-25T02:05:49;2.60;99.90
27306;DHT22;14792;50.886;6.468;2023-02-25T02:08:48;2.60;99.90
27306;DHT22;14792;50.886;6.468;2023-02-25T02:11:50;2.70;99.90
27306;DHT22;14792;50.886;6.468;2023-02-25T02:14:51;2.70;99.90
27306;DHT22;14792;50.886;6.468;2023-02-25T02:18:00;2.70;99.90
27306;DHT22;14792;50.886;6.468;2023-02-25T02:21:19;2.80;99.90
27306;DHT22;14792;50.886;6.468;2023-02-25T02:31:48;3.00;99.90
27306;DHT22;14792;50.886;6.468;2023-02-25T02:37:59;3.10;99.90
27306;DHT22;14792;50.886;6.468;2023-02-25T02:41:16;3.10;99.90
27306;DHT22;14792;50.886;6.468;2023-02-25T02:44:39;3.20;99.90
27306;DHT22;14792;50.886;6.468;2023-02-25T02:47:35;3.10;99.90
27306;DHT22;14792;50.886;6.468;2023-02-25T02:50:46;3.20;99.90
27306;DHT22;14792;50.886;6.468;2023-02-25T02:53:39;3.20;99.90
27306;DHT22;14792;50.886;6.468;2023-02-25T02:56:40;3.20;99.90
27306;DHT22;14792;50.886;6.468;2023-02-25T02:59:47;3.20;99.90
27306;DHT22;14792;50.886;6.468;2023-02-25T03:03:00;3.20;99.90
27306;DHT22;14792;50.886;6.468;2023-02-25T03:05:52;3.30;99.90
27306;DHT22;14792;50.886;6.468;2023-02-25T03:09:19;3.30;99.90
27306;DHT22;14792;50.886;6.468;2023-02-25T03:11:58;3.30;99.90
27306;DHT22;14792;50.886;6.468;2023-02-25T03:14:59;3.30;99.90
27306;DHT22;14792;50.886;6.468;2023-02-25T03:18:05;3.30;99.90
27306;DHT22;14792;50.886;6.468;2023-02-25T03:21:17;3.30;99.90
27306;DHT22;14792;50.886;6.468;2023-02-25T03:24:16;3.30;99.90
27306;DHT22;14792;50.886;6.468;2023-02-25T03:27:24;3.30;99.90
27306;DHT22;14792;50.886;6.468;2023-02-25T03:30:31;3.30;99.90
27306;DHT22;14792;50.886;6.468;2023-02-25T03:33:55;3.30;99.90
27306;DHT22;14792;50.886;6.468;2023-02-25T03:36:59;3.30;99.90
27306;DHT22;14792;50.886;6.468;2023-02-25T03:39:59;3.30;99.90
27306;DHT22;14792;50.886;6.468;2023-02-25T03:43:05;3.40;99.90
27306;DHT22;14792;50.886;6.468;2023-02-25T03:46:05;3.40;99.90
27306;DHT22;14792;50.886;6.468;2023-02-25T03:49:07;3.40;99.90
27306;DHT22;14792;50.886;6.468;2023-02-25T03:52:10;3.40;99.90
27306;DHT22;14792;50.886;6.468;2023-02-25T03:55:10;3.50;99.90
27306;DHT22;14792;50.886;6.468;2023-02-25T03:58:11;3.50;99.90
27306;DHT22;14792;50.886;6.468;2023-02-25T04:01:20;3.50;99.90
27306;DHT22;14792;50.886;6.468;2023-02-25T04:04:16;3.50;99.90
27306;DHT22;14792;50.886;6.468;2023-02-25T04:07:17;3.50;99.90
27306;DHT22;14792;50.886;6.468;2023-02-25T04:10:19;3.50;99.90
27306;DHT22;14792;50.886;6.468;2023-02-25T04:13:20;3.60;99.90
27306;DHT22;14792;50.886;6.468;2023-02-25T04:16:22;3.60;99.90
27306;DHT22;14792;50.886;6.468;2023-02-25T04:19:24;3.60;99.90
27306;DHT22;14792;50.886;6.468;2023-02-25T04:22:25;3.70;99.90
27306;DHT22;14792;50.886;6.468;2023-02-25T04:25:27;3.60;99.90
27306;DHT22;14792;50.886;6.468;2023-02-25T04:28:28;3.60;99.90
27306;DHT22;14792;50.886;6.468;2023-02-25T04:31:30;3.60;99.90
27306;DHT22;14792;50.886;6.468;2023-02-25T04:34:32;3.60;99.90
27306;DHT22;14792;50.886;6.468;2023-02-25T04:37:33;3.60;99.90
27306;DHT22;14792;50.886;6.468;2023-02-25T04:40:35;3.60;99.90
27306;DHT22;14792;50.886;6.468;2023-02-25T04:43:37;3.60;99.90
27306;DHT22;14792;50.886;6.468;2023-02-25T04:46:41;3.60;99.90
27306;DHT22;14792;50.886;6.468;2023-02-25T04:49:42;3.60;99.90
27306;DHT22;14792;50.886;6.468;2023-02-25T04:52:47;3.60;99.90
27306;DHT22;14792;50.886;6.468;2023-02-25T04:55:48;3.60;99.90
27306;DHT22;14792;50.886;6.468;2023-02-25T04:58:50;3.60;99.90
27306;DHT22;14792;50.886;6.468;2023-02-25T05:01:52;3.60;99.90
27306;DHT22;14792;50.886;6.468;2023-02-25T05:04:53;3.70;99.90
27306;DHT22;14792;50.886;6.468;2023-02-25T05:07:55;3.60;99.90
27306;DHT22;14792;50.886;6.468;2023-02-25T05:10:56;3.60;99.90
27306;DHT22;14792;50.886;6.468;2023-02-25T05:13:58;3.60;99.90
27306;DHT22;14792;50.886;6.468;2023-02-25T05:17:00;3.60;99.90
27306;DHT22;14792;50.886;6.468;2023-02-25T05:20:01;3.60;99.90
27306;DHT22;14792;50.886;6.468;2023-02-25T05:23:03;3.60;99.90
27306;DHT22;14792;50.886;6.468;2023-02-25T05:26:04;3.60;99.90
27306;DHT22;14792;50.886;6.468;2023-02-25T05:29:06;3.60;99.90
27306;DHT22;14792;50.886;6.468;2023-02-25T05:32:07;3.60;99.90
27306;DHT22;14792;50.886;6.468;2023-02-25T05:35:09;3.50;99.90
27306;DHT22;14792;50.886;6.468;2023-02-25T05:38:11;3.60;99.90
27306;DHT22;14792;50.886;6.468;2023-02-25T05:41:13;3.60;99.90
27306;DHT22;14792;50.886;6.468;2023-02-25T05:44:14;3.60;99.90
27306;DHT22;14792;50.886;6.468;2023-02-25T05:47:16;3.50;99.90
27306;DHT22;14792;50.886;6.468;2023-02-25T05:50:17;3.50;99.90
27306;DHT22;14792;50.886;6.468;2023-02-25T05:53:19;3.60;99.90
27306;DHT22;14792;50.886;6.468;2023-02-25T05:56:22;3.60;99.90
27306;DHT22;14792;50.886;6.468;2023-02-25T05:59:22;3.60;99.90
27306;DHT22;14792;50.886;6.468;2023-02-25T06:02:24;3.60;99.90
27306;DHT22;14792;50.886;6.468;2023-02-25T06:05:25;3.60;99.90
27306;DHT22;14792;50.886;6.468;2023-02-25T06:08:27;3.60;99.90
27306;DHT22;14792;50.886;6.468;2023-02-25T06:11:29;3.60;99.90
27306;DHT22;14792;50.886;6.468;2023-02-25T06:14:30;3.50;99.90
27306;DHT22;14792;50.886;6.468;2023-02-25T06:17:32;3.60;99.90
27306;DHT22;14792;50.886;6.468;2023-02-25T06:20:33;3.60;99.90
27306;DHT22;14792;50.886;6.468;2023-02-25T06:23:36;3.50;99.90
27306;DHT22;14792;50.886;6.468;2023-02-25T06:26:36;3.50;99.90
27306;DHT22;14792;50.886;6.468;2023-02-25T06:29:38;3.50;99.90
27306;DHT22;14792;50.886;6.468;2023-02-25T06:32:39;3.50;99.90
27306;DHT22;14792;50.886;6.468;2023-02-25T06:35:41;3.50;99.90
27306;DHT22;14792;50.886;6.468;2023-02-25T06:38:43;3.50;99.90
27306;DHT22;14792;50.886;6.468;2023-02-25T06:41:44;3.50;99.90
27306;DHT22;14792;50.886;6.468;2023-02-25T06:44:46;3.50;99.90
27306;DHT22;14792;50.886;6.468;2023-02-25T06:47:47;3.60;99.90
27306;DHT22;14792;50.886;6.468;2023-02-25T06:50:49;3.60;99.90
27306;DHT22;14792;50.886;6.468;2023-02-25T06:53:51;3.50;99.90
27306;DHT22;14792;50.886;6.468;2023-02-25T06:56:52;3.60;99.90
27306;DHT22;14792;50.886;6.468;2023-02-25T06:59:54;3.50;99.90
27306;DHT22;14792;50.886;6.468;2023-02-25T07:02:55;3.50;99.90
27306;DHT22;14792;50.886;6.468;2023-02-25T07:05:57;3.60;99.90
27306;DHT22;14792;50.886;6.468;2023-02-25T07:08:59;3.60;99.90
27306;DHT22;14792;50.886;6.468;2023-02-25T07:12:00;3.60;99.90
27306;DHT22;14792;50.886;6.468;2023-02-25T07:15:02;3.60;99.90
27306;DHT22;14792;50.886;6.468;2023-02-25T07:18:03;3.60;99.90
27306;DHT22;14792;50.886;6.468;2023-02-25T07:21:05;3.70;99.90
27306;DHT22;14792;50.886;6.468;2023-02-25T07:24:07;3.70;99.90
27306;DHT22;14792;50.886;6.468;2023-02-25T07:27:08;3.70;99.90
27306;DHT22;14792;50.886;6.468;2023-02-25T07:30:10;3.70;99.90
27306;DHT22;14792;50.886;6.468;2023-02-25T07:33:11;3.70;99.90
27306;DHT22;14792;50.886;6.468;2023-02-25T07:36:13;3.70;99.90
27306;DHT22;14792;50.886;6.468;2023-02-25T07:39:14;3.80;99.90
27306;DHT22;14792;50.886;6.468;2023-02-25T07:42:16;3.80;99.90
27306;DHT22;14792;50.886;6.468;2023-02-25T07:45:18;3.80;99.90
27306;DHT22;14792;50.886;6.468;2023-02-25T07:48:19;3.80;99.90
27306;DHT22;14792;50.886;6.468;2023-02-25T07:51:21;3.90;99.90
27306;DHT22;14792;50.886;6.468;2023-02-25T07:54:22;3.90;99.90
27306;DHT22;14792;50.886;6.468;2023-02-25T07:57:24;4.00;99.90
27306;DHT22;14792;50.886;6.468;2023-02-25T08:00:26;4.00;99.90
27306;DHT22;14792;50.886;6.468;2023-02-25T08:03:27;4.00;99.90
27306;DHT22;14792;50.886;6.468;2023-02-25T08:06:29;4.10;99.90
27306;DHT22;14792;50.886;6.468;2023-02-25T08:09:30;4.10;99.90
27306;DHT22;14792;50.886;6.468;2023-02-25T08:12:32;4.20;99.90
27306;DHT22;14792;50.886;6.468;2023-02-25T08:15:33;4.20;99.90
27306;DHT22;14792;50.886;6.468;2023-02-25T08:18:35;4.30;99.90
27306;DHT22;14792;50.886;6.468;2023-02-25T08:21:37;4.20;99.90
27306;DHT22;14792;50.886;6.468;2023-02-25T08:24:38;4.30;99.90
27306;DHT22;14792;50.886;6.468;2023-02-25T08:27:40;4.40;99.90
27306;DHT22;14792;50.886;6.468;2023-02-25T08:30:41;4.30;99.90
27306;DHT22;14792;50.886;6.468;2023-02-25T08:33:44;4.30;99.90
27306;DHT22;14792;50.886;6.468;2023-02-25T08:36:45;4.40;99.90
27306;DHT22;14792;50.886;6.468;2023-02-25T08:39:46;4.30;99.90
27306;DHT22;14792;50.886;6.468;2023-02-25T08:42:48;4.30;99.90
27306;DHT22;14792;50.886;6.468;2023-02-25T08:45:49;4.40;99.90
27306;DHT22;14792;50.886;6.468;2023-02-25T08:48:52;4.50;99.90
27306;DHT22;14792;50.886;6.468;2023-02-25T08:51:52;4.60;99.90
27306;DHT22;14792;50.886;6.468;2023-02-25T08:54:54;4.60;99.90
27306;DHT22;14792;50.886;6.468;2023-02-25T08:57:56;4.60;99.90
27306;DHT22;14792;50.886;6.468;2023-02-25T09:00:57;4.60;99.90
27306;DHT22;14792;50.886;6.468;2023-02-25T09:03:59;4.70;99.90
27306;DHT22;14792;50.886;6.468;2023-02-25T09:07:01;4.60;99.90
27306;DHT22;14792;50.886;6.468;2023-02-25T09:10:03;4.70;99.90
27306;DHT22;14792;50.886;6.468;2023-02-25T09:13:04;4.80;99.90
27306;DHT22;14792;50.886;6.468;2023-02-25T09:16:05;4.90;99.90
27306;DHT22;14792;50.886;6.468;2023-02-25T09:19:07;5.00;99.90
27306;DHT22;14792;50.886;6.468;2023-02-25T09:22:08;5.00;99.90
27306;DHT22;14792;50.886;6.468;2023-02-25T09:25:10;4.90;99.90
27306;DHT22;14792;50.886;6.468;2023-02-25T09:28:12;4.90;99.90
27306;DHT22;14792;50.886;6.468;2023-02-25T09:31:14;5.40;99.90
27306;DHT22;14792;50.886;6.468;2023-02-25T09:34:15;5.60;99.90
27306;DHT22;14792;50.886;6.468;2023-02-25T09:37:17;5.60;99.90
27306;DHT22;14792;50.886;6.468;2023-02-25T09:40:18;5.70;99.90
27306;DHT22;14792;50.886;6.468;2023-02-25T09:43:21;5.70;99.90
27306;DHT22;14792;50.886;6.468;2023-02-25T09:46:21;5.70;99.90
27306;DHT22;14792;50.886;6.468;2023-02-25T09:52:31;5.70;99.90
27306;DHT22;14792;50.886;6.468;2023-02-25T09:55:33;5.60;99.90
27306;DHT22;14792;50.886;6.468;2023-02-25T09:58:38;5.60;99.90
27306;DHT22;14792;50.886;6.468;2023-02-25T10:01:39;5.60;99.90
27306;DHT22;14792;50.886;6.468;2023-02-25T10:04:58;5.50;99.90
27306;DHT22;14792;50.886;6.468;2023-02-25T10:11:08;5.40;99.90
27306;DHT22;14792;50.886;6.468;2023-02-25T10:24:55;5.60;99.90
27306;DHT22;14792;50.886;6.468;2023-02-25T10:27:36;5.80;99.90
27306;DHT22;14792;50.886;6.468;2023-02-25T10:30:47;5.80;99.90
27306;DHT22;14792;50.886;6.468;2023-02-25T10:33:48;6.00;99.90
27306;DHT22;14792;50.886;6.468;2023-02-25T10:36:58;6.10;99.90
27306;DHT22;14792;50.886;6.468;2023-02-25T10:40:00;6.20;99.90
27306;DHT22;14792;50.886;6.468;2023-02-25T10:43:08;6.50;99.90
27306;DHT22;14792;50.886;6.468;2023-02-25T10:46:03;6.40;99.90
27306;DHT22;14792;50.886;6.468;2023-02-25T10:49:14;6.80;99.90
27306;DHT22;14792;50.886;6.468;2023-02-25T10:52:16;7.10;99.90
27306;DHT22;14792;50.886;6.468;2023-02-25T10:55:27;6.90;99.90
27306;DHT22;14792;50.886;6.468;2023-02-25T10:58:30;6.40;99.90
27306;DHT22;14792;50.886;6.468;2023-02-25T11:01:33;6.00;99.90
27306;DHT22;14792;50.886;6.468;2023-02-25T11:04:36;5.80;99.90
27306;DHT22;14792;50.886;6.468;2023-02-25T11:10:38;5.60;99.90
27306;DHT22;14792;50.886;6.468;2023-02-25T11:13:40;5.60;99.90
27306;DHT22;14792;50.886;6.468;2023-02-25T11:16:42;5.80;99.90
27306;DHT22;14792;50.886;6.468;2023-02-25T11:19:44;5.70;99.90
27306;DHT22;14792;50.886;6.468;2023-02-25T11:22:44;5.70;99.90
27306;DHT22;14792;50.886;6.468;2023-02-25T11:25:46;5.30;99.90
27306;DHT22;14792;50.886;6.468;2023-02-25T11:28:48;5.20;99.90
27306;DHT22;14792;50.886;6.468;2023-02-25T11:31:50;5.20;99.90
27306;DHT22;14792;50.886;6.468;2023-02-25T11:34:52;5.00;99.90
27306;DHT22;14792;50.886;6.468;2023-02-25T11:37:52;5.00;99.90
27306;DHT22;14792;50.886;6.468;2023-02-25T11:40:54;5.10;99.90
27306;DHT22;14792;50.886;6.468;2023-02-25T11:43:55;5.10;99.90
27306;DHT22;14792;50.886;6.468;2023-02-25T11:47:06;5.10;99.90
27306;DHT22;14792;50.886;6.468;2023-02-25T11:50:15;5.30;99.90
27306;DHT22;14792;50.886;6.468;2023-02-25T11:56:27;5.30;99.90
27306;DHT22;14792;50.886;6.468;2023-02-25T11:59:36;5.10;99.90
27306;DHT22;14792;50.886;6.468;2023-02-25T12:03:03;4.90;99.90
27306;DHT22;14792;50.886;6.468;2023-02-25T12:06:05;4.80;99.90
27306;DHT22;14792;50.886;6.468;2023-02-25T12:09:28;5.00;99.90
27306;DHT22;14792;50.886;6.468;2023-02-25T12:29:24;5.50;99.90
27306;DHT22;14792;50.886;6.468;2023-02-25T12:32:40;5.40;99.90
27306;DHT22;14792;50.886;6.468;2023-02-25T12:36:05;5.30;99.90
27306;DHT22;14792;50.886;6.468;2023-02-25T12:39:21;5.50;99.90
27306;DHT22;14792;50.886;6.468;2023-02-25T12:42:25;6.10;99.90
27306;DHT22;14792;50.886;6.468;2023-02-25T12:52:13;7.40;99.90
27306;DHT22;14792;50.886;6.468;2023-02-25T12:55:30;7.70;99.90
27306;DHT22;14792;50.886;6.468;2023-02-25T13:01:53;7.90;99.90
27306;DHT22;14792;50.886;6.468;2023-02-25T13:08:30;7.10;99.90
27306;DHT22;14792;50.886;6.468;2023-02-25T13:11:49;6.90;99.90
27306;DHT22;14792;50.886;6.468;2023-02-25T13:18:22;6.70;99.90
27306;DHT22;14792;50.886;6.468;2023-02-25T15:28:41;7.00;99.90
27306;DHT22;14792;50.886;6.468;2023-02-25T15:31:41;6.80;99.90
27306;DHT22;14792;50.886;6.468;2023-02-25T15:40:55;6.60;99.90
27306;DHT22;14792;50.886;6.468;2023-02-25T15:43:57;6.50;99.90
27306;DHT22;14792;50.886;6.468;2023-02-25T15:53:41;6.40;99.90
27306;DHT22;14792;50.886;6.468;2023-02-25T15:56:49;6.20;99.90
27306;DHT22;14792;50.886;6.468;2023-02-25T16:03:00;6.20;99.90
27306;DHT22;14792;50.886;6.468;2023-02-25T16:06:21;6.00;99.90
27306;DHT22;14792;50.886;6.468;2023-02-25T16:09:21;6.20;99.90
27306;DHT22;14792;50.886;6.468;2023-02-25T16:12:23;6.20;99.90
27306;DHT22;14792;50.886;6.468;2023-02-25T16:15:40;6.00;99.90
27306;DHT22;14792;50.886;6.468;2023-02-25T16:18:41;6.10;99.90
27306;DHT22;14792;50.886;6.468;2023-02-25T16:21:44;5.90;99.90
27306;DHT22;14792;50.886;6.468;2023-02-25T16:24:48;5.80;99.90
27306;DHT22;14792;50.886;6.468;2023-02-25T16:27:57;5.60;99.90
27306;DHT22;14792;50.886;6.468;2023-02-25T16:40:52;5.20;99.90
27306;DHT22;14792;50.886;6.468;2023-02-25T16:43:54;5.00;99.90
27306;DHT22;14792;50.886;6.468;2023-02-25T16:46:56;4.90;99.90
27306;DHT22;14792;50.886;6.468;2023-02-25T16:49:58;4.80;99.90
27306;DHT22;14792;50.886;6.468;2023-02-25T16:52:59;4.70;99.90
27306;DHT22;14792;50.886;6.468;2023-02-25T16:56:00;4.60;99.90
27306;DHT22;14792;50.886;6.468;2023-02-25T17:05:24;4.30;99.90
27306;DHT22;14792;50.886;6.468;2023-02-25T17:08:24;4.20;99.90
27306;DHT22;14792;50.886;6.468;2023-02-25T17:11:26;4.10;99.90
27306;DHT22;14792;50.886;6.468;2023-02-25T17:14:27;4.00;99.90
27306;DHT22;14792;50.886;6.468;2023-02-25T17:17:30;3.90;99.90
27306;DHT22;14792;50.886;6.468;2023-02-25T17:20:30;3.90;99.90
27306;DHT22;14792;50.886;6.468;2023-02-25T17:23:38;3.80;99.90
27306;DHT22;14792;50.886;6.468;2023-02-25T17:26:46;3.70;99.90
27306;DHT22;14792;50.886;6.468;2023-02-25T17:29:47;3.70;99.90
27306;DHT22;14792;50.886;6.468;2023-02-25T17:32:53;3.60;99.90
27306;DHT22;14792;50.886;6.468;2023-02-25T17:35:50;3.60;99.90
27306;DHT22;14792;50.886;6.468;2023-02-25T17:38:59;3.50;99.90
27306;DHT22;14792;50.886;6.468;2023-02-25T17:41:58;3.50;99.90
27306;DHT22;14792;50.886;6.468;2023-02-25T17:45:01;3.40;99.90
27306;DHT22;14792;50.886;6.468;2023-02-25T17:48:02;3.40;99.90
27306;DHT22;14792;50.886;6.468;2023-02-25T17:51:04;3.30;99.90
27306;DHT22;14792;50.886;6.468;2023-02-25T17:54:11;3.30;99.90
27306;DHT22;14792;50.886;6.468;2023-02-25T17:57:17;3.30;99.90
27306;DHT22;14792;50.886;6.468;2023-02-25T18:03:19;3.30;99.90
27306;DHT22;14792;50.886;6.468;2023-02-25T18:06:33;3.20;99.90
27306;DHT22;14792;50.886;6.468;2023-02-25T18:09:37;3.20;99.90
27306;DHT22;14792;50.886;6.468;2023-02-25T18:12:37;3.10;99.90
27306;DHT22;14792;50.886;6.468;2023-02-25T18:15:39;3.10;99.90
27306;DHT22;14792;50.886;6.468;2023-02-25T18:18:41;3.10;99.90
27306;DHT22;14792;50.886;6.468;2023-02-25T18:21:42;3.00;99.90
27306;DHT22;14792;50.886;6.468;2023-02-25T18:24:44;3.00;99.90
27306;DHT22;14792;50.886;6.468;2023-02-25T18:27:45;3.00;99.90
27306;DHT22;14792;50.886;6.468;2023-02-25T18:30:48;2.90;99.90
27306;DHT22;14792;50.886;6.468;2023-02-25T18:33:49;2.90;99.90
27306;DHT22;14792;50.886;6.468;2023-02-25T18:36:50;2.90;99.90
27306;DHT22;14792;50.886;6.468;2023-02-25T18:39:52;2.80;99.90
27306;DHT22;14792;50.886;6.468;2023-02-25T18:42:54;2.80;99.90
27306;DHT22;14792;50.886;6.468;2023-02-25T18:45:55;2.80;99.90
27306;DHT22;14792;50.886;6.468;2023-02-25T18:48:57;2.80;99.90
27306;DHT22;14792;50.886;6.468;2023-02-25T18:51:58;2.80;99.90
27306;DHT22;14792;50.886;6.468;2023-02-25T18:55:00;2.80;99.90
27306;DHT22;14792;50.886;6.468;2023-02-25T18:58:02;2.80;99.90
27306;DHT22;14792;50.886;6.468;2023-02-25T19:01:03;2.70;99.90
27306;DHT22;14792;50.886;6.468;2023-02-25T19:04:05;2.70;99.90
27306;DHT22;14792;50.886;6.468;2023-02-25T19:07:10;2.70;99.90
27306;DHT22;14792;50.886;6.468;2023-02-25T19:10:14;2.70;99.90
27306;DHT22;14792;50.886;6.468;2023-02-25T19:13:34;2.60;99.90
27306;DHT22;14792;50.886;6.468;2023-02-25T19:16:34;2.60;99.90
27306;DHT22;14792;50.886;6.468;2023-02-25T19:19:36;2.50;99.90
27306;DHT22;14792;50.886;6.468;2023-02-25T19:22:44;2.50;99.90
27306;DHT22;14792;50.886;6.468;2023-02-25T19:25:45;2.50;99.90
27306;DHT22;14792;50.886;6.468;2023-02-25T19:28:47;2.40;99.90
27306;DHT22;14792;50.886;6.468;2023-02-25T19:31:48;2.40;99.90
27306;DHT22;14792;50.886;6.468;2023-02-25T19:34:50;2.40;99.90
27306;DHT22;14792;50.886;6.468;2023-02-25T19:37:51;2.40;99.90
27306;DHT22;14792;50.886;6.468;2023-02-25T19:40:53;2.30;99.90
27306;DHT22;14792;50.886;6.468;2023-02-25T19:43:54;2.30;99.90
27306;DHT22;14792;50.886;6.468;2023-02-25T19:46:56;2.20;99.90
27306;DHT22;14792;50.886;6.468;2023-02-25T19:49:58;2.20;99.90
27306;DHT22;14792;50.886;6.468;2023-02-25T19:53:00;2.20;99.90
27306;DHT22;14792;50.886;6.468;2023-02-25T19:56:01;2.10;99.90
27306;DHT22;14792;50.886;6.468;2023-02-25T19:59:02;2.10;99.90
27306;DHT22;14792;50.886;6.468;2023-02-25T20:02:05;2.00;99.90
27306;DHT22;14792;50.886;6.468;2023-02-25T20:05:07;2.00;99.90
27306;DHT22;14792;50.886;6.468;2023-02-25T20:08:08;1.90;99.90
27306;DHT22;14792;50.886;6.468;2023-02-25T20:11:10;1.80;99.90
27306;DHT22;14792;50.886;6.468;2023-02-25T20:14:12;1.80;99.90
27306;DHT22;14792;50.886;6.468;2023-02-25T20:17:13;1.80;99.90
27306;DHT22;14792;50.886;6.468;2023-02-25T20:20:15;1.70;99.90
27306;DHT22;14792;50.886;6.468;2023-02-25T20:23:16;1.70;99.90
27306;DHT22;14792;50.886;6.468;2023-02-25T20:26:18;1.70;99.90
27306;DHT22;14792;50.886;6.468;2023-02-25T20:29:19;1.60;99.90
27306;DHT22;14792;50.886;6.468;2023-02-25T20:32:21;1.60;99.90
27306;DHT22;14792;50.886;6.468;2023-02-25T20:35:23;1.60;99.90
27306;DHT22;14792;50.886;6.468;2023-02-25T20:38:31;1.50;99.90
27306;DHT22;14792;50.886;6.468;2023-02-25T20:41:32;1.50;99.90
27306;DHT22;14792;50.886;6.468;2023-02-25T20:44:33;1.40;99.90
27306;DHT22;14792;50.886;6.468;2023-02-25T20:47:35;1.40;99.90
27306;DHT22;14792;50.886;6.468;2023-02-25T20:50:37;1.40;99.90
27306;DHT22;14792;50.886;6.468;2023-02-25T20:53:38;1.30;99.90
27306;DHT22;14792;50.886;6.468;2023-02-25T20:56:40;1.30;99.90
27306;DHT22;14792;50.886;6.468;2023-02-25T20:59:41;1.20;99.90
27306;DHT22;14792;50.886;6.468;2023-02-25T21:02:43;1.20;99.90
27306;DHT22;14792;50.886;6.468;2023-02-25T21:05:44;1.20;99.90
27306;DHT22;14792;50.886;6.468;2023-02-25T21:08:46;1.20;99.90
27306;DHT22;14792;50.886;6.468;2023-02-25T21:11:48;1.10;99.90
27306;DHT22;14792;50.886;6.468;2023-02-25T21:14:49;1.10;99.90
27306;DHT22;14792;50.886;6.468;2023-02-25T21:17:51;1.10;99.90
27306;DHT22;14792;50.886;6.468;2023-02-25T21:20:59;1.10;99.90
27306;DHT22;14792;50.886;6.468;2023-02-25T21:24:00;1.00;99.90
27306;DHT22;14792;50.886;6.468;2023-02-25T21:27:02;1.00;99.90
27306;DHT22;14792;50.886;6.468;2023-02-25T21:30:03;1.00;99.90
27306;DHT22;14792;50.886;6.468;2023-02-25T21:33:05;0.90;99.90
27306;DHT22;14792;50.886;6.468;2023-02-25T21:36:07;0.90;99.90
27306;DHT22;14792;50.886;6.468;2023-02-25T21:39:08;0.90;99.90
27306;DHT22;14792;50.886;6.468;2023-02-25T21:42:09;0.90;99.90
27306;DHT22;14792;50.886;6.468;2023-02-25T21:45:11;0.80;99.90
27306;DHT22;14792;50.886;6.468;2023-02-25T21:48:13;0.80;99.90
27306;DHT22;14792;50.886;6.468;2023-02-25T21:51:19;0.70;99.90
27306;DHT22;14792;50.886;6.468;2023-02-25T21:54:16;0.60;99.90
27306;DHT22;14792;50.886;6.468;2023-02-25T21:57:17;0.60;99.90
27306;DHT22;14792;50.886;6.468;2023-02-25T22:00:19;0.60;99.90
27306;DHT22;14792;50.886;6.468;2023-02-25T22:03:20;0.60;99.90
27306;DHT22;14792;50.886;6.468;2023-02-25T22:06:22;0.60;99.90
27306;DHT22;14792;50.886;6.468;2023-02-25T22:09:24;0.50;99.90
27306;DHT22;14792;50.886;6.468;2023-02-25T22:12:25;0.60;99.90
27306;DHT22;14792;50.886;6.468;2023-02-25T22:15:27;0.60;99.90
27306;DHT22;14792;50.886;6.468;2023-02-25T22:18:29;0.60;99.90
27306;DHT22;14792;50.886;6.468;2023-02-25T22:21:31;0.50;99.90
27306;DHT22;14792;50.886;6.468;2023-02-25T22:24:32;0.40;99.90
27306;DHT22;14792;50.886;6.468;2023-02-25T22:27:33;0.40;99.90
27306;DHT22;14792;50.886;6.468;2023-02-25T22:30:35;0.40;99.90
27306;DHT22;14792;50.886;6.468;2023-02-25T22:33:36;0.40;99.90
27306;DHT22;14792;50.886;6.468;2023-02-25T22:36:38;0.30;99.90
27306;DHT22;14792;50.886;6.468;2023-02-25T22:39:40;0.30;99.90
27306;DHT22;14792;50.886;6.468;2023-02-25T22:42:41;0.40;99.90
27306;DHT22;14792;50.886;6.468;2023-02-25T22:45:43;0.50;99.90
27306;DHT22;14792;50.886;6.468;2023-02-25T22:48:45;0.50;99.90
27306;DHT22;14792;50.886;6.468;2023-02-25T22:51:46;0.70;99.90
27306;DHT22;14792;50.886;6.468;2023-02-25T22:54:47;0.60;99.90
27306;DHT22;14792;50.886;6.468;2023-02-25T22:57:49;0.80;99.90
27306;DHT22;14792;50.886;6.468;2023-02-25T23:00:51;0.70;99.90
27306;DHT22;14792;50.886;6.468;2023-02-25T23:03:53;0.70;99.90
27306;DHT22;14792;50.886;6.468;2023-02-25T23:06:54;0.80;99.90
27306;DHT22;14792;50.886;6.468;2023-02-25T23:09:55;0.80;99.90
27306;DHT22;14792;50.886;6.468;2023-02-25T23:12:57;0.70;99.90
27306;DHT22;14792;50.886;6.468;2023-02-25T23:16:01;0.70;99.90
27306;DHT22;14792;50.886;6.468;2023-02-25T23:19:03;0.70;99.90
27306;DHT22;14792;50.886;6.468;2023-02-25T23:22:04;0.60;99.90